Time;durP1;ratioP1;P1;durP2;ratioP2;P2;SDS_P1;SDS_P2;PMS_P1;PMS_P2;Temp;Humidity;BMP_temperature;BMP_pressure;BME280_temperature;BME280_humidity;BME280_pressure;Samples;Min_cycle;Max_cycle;Signal;HPM_P1;HPM_P2
2022/08/03 00:01:58;;;;;;;9.48;2.65;;;;;;;;;;5123170;28;20058;-73
2022/08/03 00:04:24;;;;;;;9.60;2.97;;;;;;;;;;5121756;28;20054;-73
2022/08/03 00:06:50;;;;;;;9.93;3.25;;;;;;;;;;5108471;28;20036;-74
2022/08/03 00:09:17;;;;;;;8.93;2.97;;;;;;;;;;5104686;28;20039;-74
2022/08/03 00:11:43;;;;;;;9.15;3.08;;;;;;;;;;5094078;28;20051;-73
2022/08/03 00:14:09;;;;;;;9.05;3.08;;;;;;;;;;5113826;28;20039;-73
2022/08/03 00:16:35;;;;;;;11.70;3.40;;;;;;;;;;5100942;28;20082;-74
2022/08/03 00:19:01;;;;;;;9.70;3.13;;;;;;;;;;5101479;28;20040;-73
2022/08/03 00:21:28;;;;;;;9.57;3.30;;;;;;;;;;5101452;28;20045;-73
2022/08/03 00:23:54;;;;;;;9.73;3.38;;;;;;;;;;5113976;28;20047;-74
2022/08/03 00:26:20;;;;;;;11.10;3.55;;;;;;;;;;5121480;28;20039;-73
2022/08/03 00:28:46;;;;;;;10.00;3.40;;;;;;;;;;5120314;28;20570;-74
2022/08/03 00:31:12;;;;;;;9.35;3.28;;;;;;;;;;5121715;28;20047;-73
2022/08/03 00:33:38;;;;;;;14.18;3.88;;;;;;;;;;5122213;28;20052;-74
2022/08/03 00:36:04;;;;;;;11.70;3.33;;;;;;;;;;5122972;28;20441;-73
2022/08/03 00:38:30;;;;;;;12.98;3.25;;;;;;;;;;5118231;28;20067;-74
2022/08/03 00:40:56;;;;;;;8.43;3.13;;;;;;;;;;5112393;28;20047;-74
2022/08/03 00:43:25;;;;;;;9.18;4.00;;;;;;;;;;5091984;28;20055;-72
2022/08/03 00:45:51;;;;;;;10.85;3.35;;;;;;;;;;5082131;28;20135;-73
2022/08/03 00:48:17;;;;;;;9.82;3.13;;;;;;;;;;5111911;28;20442;-73
2022/08/03 00:50:43;;;;;;;10.60;3.00;;;;;;;;;;5102155;28;20103;-73
2022/08/03 00:53:11;;;;;;;10.90;3.67;;;;;;;;;;5112916;28;20055;-73
2022/08/03 00:55:37;;;;;;;11.73;3.90;;;;;;;;;;5102227;28;20050;-73
2022/08/03 00:58:07;;;;;;;12.40;4.03;;;;;;;;;;5117791;28;20048;-73
2022/08/03 01:00:35;;;;;;;8.18;3.80;;;;;;;;;;5121083;28;20526;-73
2022/08/03 01:03:01;;;;;;;10.65;3.55;;;;;;;;;;5118766;28;20043;-74
2022/08/03 01:05:28;;;;;;;10.70;3.92;;;;;;;;;;5120016;28;20048;-73
2022/08/03 01:08:00;;;;;;;9.38;3.90;;;;;;;;;;5084334;28;20040;-73
2022/08/03 01:10:26;;;;;;;12.13;3.80;;;;;;;;;;5107341;28;20044;-73
2022/08/03 01:13:11;;;;;;;8.27;3.75;;;;;;;;;;5100879;28;20036;-73
2022/08/03 01:15:43;;;;;;;10.38;3.55;;;;;;;;;;5105702;28;20500;-73
2022/08/03 01:18:14;;;;;;;13.60;4.05;;;;;;;;;;5105198;28;20481;-72
2022/08/03 01:20:42;;;;;;;10.75;3.85;;;;;;;;;;5082725;28;20048;-73
2022/08/03 01:23:11;;;;;;;11.75;3.85;;;;;;;;;;5099439;28;20101;-73
2022/08/03 01:25:55;;;;;;;10.55;4.07;;;;;;;;;;5100281;28;20444;-73
2022/08/03 01:28:28;;;;;;;12.82;4.32;;;;;;;;;;5101463;28;20093;-73
2022/08/03 01:30:58;;;;;;;14.77;4.18;;;;;;;;;;5118395;28;20401;-73
2022/08/03 01:33:27;;;;;;;10.45;4.07;;;;;;;;;;5104815;28;20044;-73
2022/08/03 01:36:04;;;;;;;10.63;4.38;;;;;;;;;;5112863;28;20046;-73
2022/08/03 01:38:32;;;;;;;10.40;4.00;;;;;;;;;;5121900;28;20043;-73
2022/08/03 01:41:02;;;;;;;9.25;3.97;;;;;;;;;;5107569;28;20549;-74
2022/08/03 01:43:30;;;;;;;9.00;4.10;;;;;;;;;;5104947;28;20064;-74
2022/08/03 01:45:56;;;;;;;10.98;4.20;;;;;;;;;;5116291;28;20043;-73
2022/08/03 01:48:23;;;;;;;9.32;4.03;;;;;;;;;;5105598;28;20043;-73
2022/08/03 01:50:50;;;;;;;9.02;3.70;;;;;;;;;;5104657;28;20401;-73
2022/08/03 01:53:17;;;;;;;10.70;4.38;;;;;;;;;;5098633;28;20327;-74
2022/08/03 01:55:49;;;;;;;11.43;3.85;;;;;;;;;;5118411;28;20509;-74
2022/08/03 01:58:16;;;;;;;10.80;3.80;;;;;;;;;;5120241;28;20446;-74
2022/08/03 02:00:43;;;;;;;8.68;3.65;;;;;;;;;;5118119;28;20044;-73
2022/08/03 02:03:11;;;;;;;12.00;4.18;;;;;;;;;;5120071;28;20040;-73
2022/08/03 02:05:38;;;;;;;11.23;4.18;;;;;;;;;;5121672;28;20061;-74
2022/08/03 02:08:06;;;;;;;11.07;3.97;;;;;;;;;;5120907;28;20047;-72
2022/08/03 02:10:32;;;;;;;9.70;3.97;;;;;;;;;;5106871;28;20036;-73
2022/08/03 02:13:00;;;;;;;10.02;4.03;;;;;;;;;;5100465;28;20055;-73
2022/08/03 02:15:27;;;;;;;10.57;4.20;;;;;;;;;;5099525;28;20055;-72
2022/08/03 02:17:54;;;;;;;10.20;4.03;;;;;;;;;;5080449;28;20106;-74
2022/08/03 02:20:21;;;;;;;14.45;4.25;;;;;;;;;;5100187;28;20083;-73
2022/08/03 02:22:47;;;;;;;14.90;4.40;;;;;;;;;;5099465;28;20051;-72
2022/08/03 02:25:14;;;;;;;10.82;3.97;;;;;;;;;;5097987;28;20055;-73
2022/08/03 02:27:43;;;;;;;7.80;4.05;;;;;;;;;;5097975;28;20123;-73
2022/08/03 02:30:11;;;;;;;11.85;4.53;;;;;;;;;;5097761;28;20040;-74
2022/08/03 02:32:39;;;;;;;10.35;4.10;;;;;;;;;;5107071;28;20035;-73
2022/08/03 02:35:06;;;;;;;9.68;4.40;;;;;;;;;;5118921;28;20065;-74
2022/08/03 02:37:34;;;;;;;12.13;4.80;;;;;;;;;;5117703;28;20040;-72
2022/08/03 02:40:02;;;;;;;11.55;4.57;;;;;;;;;;5101406;28;20078;-73
2022/08/03 02:42:29;;;;;;;12.30;5.20;;;;;;;;;;5102301;28;20035;-74
2022/08/03 02:44:56;;;;;;;11.52;4.63;;;;;;;;;;5101476;28;20397;-74
2022/08/03 02:47:23;;;;;;;11.13;5.00;;;;;;;;;;5103340;28;20117;-73
2022/08/03 02:49:50;;;;;;;10.90;4.85;;;;;;;;;;5097512;28;20051;-74
2022/08/03 02:52:17;;;;;;;10.07;4.18;;;;;;;;;;5098457;28;20050;-73
2022/08/03 02:54:44;;;;;;;11.82;4.82;;;;;;;;;;5111917;28;20062;-73
2022/08/03 02:57:10;;;;;;;9.65;4.05;;;;;;;;;;5098112;28;20048;-73
2022/08/03 02:59:37;;;;;;;11.20;4.60;;;;;;;;;;5105717;28;20035;-73
2022/08/03 03:02:04;;;;;;;8.85;4.63;;;;;;;;;;5109956;28;20075;-74
2022/08/03 03:04:30;;;;;;;11.18;4.50;;;;;;;;;;5117769;28;20405;-73
2022/08/03 03:06:56;;;;;;;13.43;4.47;;;;;;;;;;5118719;28;20060;-74
2022/08/03 03:09:23;;;;;;;10.98;4.35;;;;;;;;;;5113550;28;20804;-73
2022/08/03 03:11:50;;;;;;;13.20;4.43;;;;;;;;;;5097984;28;20036;-73
2022/08/03 03:14:17;;;;;;;9.35;4.30;;;;;;;;;;5105114;28;20050;-73
2022/08/03 03:16:44;;;;;;;10.70;3.88;;;;;;;;;;5095654;28;20043;-73
2022/08/03 03:19:11;;;;;;;11.27;4.30;;;;;;;;;;5098594;28;20040;-74
2022/08/03 03:21:37;;;;;;;10.55;4.22;;;;;;;;;;5080362;28;20040;-73
2022/08/03 03:24:04;;;;;;;11.82;4.47;;;;;;;;;;5098000;28;20504;-73
2022/08/03 03:26:30;;;;;;;11.45;4.22;;;;;;;;;;5100451;28;20434;-73
2022/08/03 03:28:56;;;;;;;12.10;4.70;;;;;;;;;;5110177;28;20032;-73
2022/08/03 03:31:22;;;;;;;9.80;4.18;;;;;;;;;;5123122;28;20039;-73
2022/08/03 03:33:49;;;;;;;12.10;4.57;;;;;;;;;;5106766;28;20619;-74
2022/08/03 03:36:15;;;;;;;9.73;3.88;;;;;;;;;;5104847;28;20104;-73
2022/08/03 03:38:41;;;;;;;12.77;4.65;;;;;;;;;;5102413;28;20044;-72
2022/08/03 03:41:07;;;;;;;10.95;4.45;;;;;;;;;;5108511;28;20046;-73
2022/08/03 03:43:33;;;;;;;9.15;4.35;;;;;;;;;;5103576;28;20126;-74
2022/08/03 03:46:00;;;;;;;14.18;4.55;;;;;;;;;;5115157;28;20374;-74
2022/08/03 03:48:26;;;;;;;13.77;4.50;;;;;;;;;;5108607;28;20067;-74
2022/08/03 03:50:52;;;;;;;10.45;4.03;;;;;;;;;;5103140;28;20067;-74
2022/08/03 03:53:18;;;;;;;13.38;4.25;;;;;;;;;;5113740;28;20433;-73
2022/08/03 03:55:44;;;;;;;10.57;4.60;;;;;;;;;;5120595;28;20055;-73
2022/08/03 03:58:10;;;;;;;10.32;4.20;;;;;;;;;;5123239;28;20055;-72
2022/08/03 04:00:36;;;;;;;11.55;3.80;;;;;;;;;;5121415;28;20036;-72
2022/08/03 04:03:02;;;;;;;10.40;4.35;;;;;;;;;;5090880;28;20048;-73
2022/08/03 04:11:13;;;;;;;9.27;4.10;;;;;;;;;;5103789;28;20052;-73
2022/08/03 04:13:43;;;;;;;16.00;4.65;;;;;;;;;;5103545;28;20503;-73
2022/08/03 04:16:11;;;;;;;11.48;3.60;;;;;;;;;;5102644;28;20047;-73
2022/08/03 04:18:40;;;;;;;11.15;3.67;;;;;;;;;;5118444;28;20055;-73
2022/08/03 04:21:09;;;;;;;;;;;;;;;;;;5122543;28;20051;-74
2022/08/03 04:23:36;;;;;;;13.40;3.50;;;;;;;;;;5123453;28;19930;-72
2022/08/03 04:26:05;;;;;;;11.20;3.25;;;;;;;;;;5112635;28;20075;-74
2022/08/03 04:28:32;;;;;;;11.88;3.03;;;;;;;;;;5103063;28;20050;-74
2022/08/03 04:31:02;;;;;;;10.45;3.22;;;;;;;;;;5106844;28;20084;-74
2022/08/03 04:33:30;;;;;;;8.27;3.00;;;;;;;;;;5104589;28;20058;-73
2022/08/03 04:35:57;;;;;;;14.10;3.47;;;;;;;;;;5105958;28;20036;-72
2022/08/03 04:38:24;;;;;;;12.23;3.47;;;;;;;;;;5101845;28;20039;-73
2022/08/03 04:40:52;;;;;;;13.23;3.55;;;;;;;;;;5111059;28;20048;-74
2022/08/03 04:43:18;;;;;;;16.05;3.47;;;;;;;;;;5121816;28;20043;-74
2022/08/03 04:45:47;;;;;;;12.13;2.97;;;;;;;;;;5118308;28;20100;-72
2022/08/03 04:48:14;;;;;;;10.45;3.17;;;;;;;;;;5104645;28;20072;-73
2022/08/03 04:50:41;;;;;;;12.07;2.95;;;;;;;;;;5114589;28;20056;-74
2022/08/03 04:53:07;;;;;;;13.95;3.60;;;;;;;;;;5117483;28;20052;-74
2022/08/03 04:55:34;;;;;;;10.57;2.85;;;;;;;;;;5121500;28;20454;-73
2022/08/03 04:58:00;;;;;;;12.60;3.28;;;;;;;;;;5122113;28;20123;-73
2022/08/03 05:00:27;;;;;;;9.30;3.50;;;;;;;;;;5113683;28;20189;-73
2022/08/03 05:02:54;;;;;;;10.50;2.90;;;;;;;;;;5113108;28;20180;-73
2022/08/03 05:05:20;;;;;;;10.90;3.17;;;;;;;;;;5102095;28;20052;-74
2022/08/03 05:07:46;;;;;;;10.43;3.35;;;;;;;;;;5100475;28;20387;-74
2022/08/03 05:10:12;;;;;;;9.90;3.58;;;;;;;;;;5103211;28;20485;-73
2022/08/03 05:12:39;;;;;;;11.95;3.65;;;;;;;;;;5121623;28;20106;-74
2022/08/03 05:15:05;;;;;;;10.82;3.60;;;;;;;;;;5110229;28;20509;-74
2022/08/03 05:17:32;;;;;;;11.38;3.88;;;;;;;;;;5099966;28;20119;-74
2022/08/03 05:19:59;;;;;;;8.55;3.40;;;;;;;;;;5103182;28;20044;-72
2022/08/03 05:22:25;;;;;;;12.45;3.72;;;;;;;;;;5101986;28;20044;-73
2022/08/03 05:24:51;;;;;;;12.80;3.40;;;;;;;;;;5102560;28;20048;-74
2022/08/03 05:27:18;;;;;;;13.23;3.42;;;;;;;;;;5063729;28;20047;-74
2022/08/03 05:29:49;;;;;;;9.63;3.40;;;;;;;;;;5096666;28;20148;-73
2022/08/03 05:32:15;;;;;;;11.70;3.67;;;;;;;;;;5113528;28;20043;-73
2022/08/03 05:34:41;;;;;;;12.18;3.42;;;;;;;;;;5103316;28;20059;-73
2022/08/03 05:37:09;;;;;;;8.82;3.30;;;;;;;;;;5101388;28;20051;-73
2022/08/03 05:39:35;;;;;;;11.13;3.40;;;;;;;;;;5103741;28;20114;-74
2022/08/03 05:42:01;;;;;;;11.13;3.38;;;;;;;;;;5120435;28;20434;-74
2022/08/03 05:44:27;;;;;;;8.35;2.83;;;;;;;;;;5121274;28;20051;-73
2022/08/03 05:46:53;;;;;;;10.60;3.00;;;;;;;;;;5105132;28;20043;-75
2022/08/03 05:49:19;;;;;;;15.23;3.67;;;;;;;;;;5100952;28;20047;-75
2022/08/03 05:51:45;;;;;;;13.85;3.47;;;;;;;;;;5114101;28;20401;-74
2022/08/03 05:54:11;;;;;;;12.38;3.03;;;;;;;;;;5112529;28;20399;-74
2022/08/03 05:56:39;;;;;;;8.85;3.10;;;;;;;;;;5105555;28;20052;-74
2022/08/03 05:59:05;;;;;;;10.25;2.67;;;;;;;;;;5117988;28;20055;-75
2022/08/03 06:01:32;;;;;;;14.50;2.80;;;;;;;;;;5094183;28;20082;-75
2022/08/03 06:03:58;;;;;;;10.90;2.60;;;;;;;;;;5106861;28;20438;-74
2022/08/03 06:06:24;;;;;;;12.75;2.83;;;;;;;;;;5110041;28;20044;-75
2022/08/03 06:08:50;;;;;;;11.23;2.80;;;;;;;;;;5100998;28;20044;-74
2022/08/03 06:11:16;;;;;;;9.75;2.40;;;;;;;;;;5104234;28;20050;-75
2022/08/03 06:13:42;;;;;;;11.32;2.83;;;;;;;;;;5100628;28;20078;-74
2022/08/03 06:16:08;;;;;;;11.98;2.72;;;;;;;;;;5083604;28;20078;-75
2022/08/03 06:18:34;;;;;;;17.83;3.65;;;;;;;;;;5098440;28;20051;-75
2022/08/03 06:21:01;;;;;;;12.32;2.70;;;;;;;;;;5110677;28;20090;-75
2022/08/03 06:23:27;;;;;;;12.68;2.53;;;;;;;;;;5119590;28;20039;-74
2022/08/03 06:25:53;;;;;;;12.95;2.58;;;;;;;;;;5120899;28;20435;-75
2022/08/03 06:28:19;;;;;;;10.05;2.70;;;;;;;;;;5120159;28;20058;-74
2022/08/03 06:30:45;;;;;;;12.25;3.08;;;;;;;;;;5119679;28;20048;-75
2022/08/03 06:33:11;;;;;;;14.02;2.90;;;;;;;;;;5112330;28;20032;-75
2022/08/03 06:35:37;;;;;;;13.30;2.95;;;;;;;;;;5100051;28;20150;-73
2022/08/03 06:38:03;;;;;;;14.00;3.22;;;;;;;;;;5099350;28;20106;-74
2022/08/03 06:40:33;;;;;;;10.02;2.83;;;;;;;;;;5100473;28;20043;-74
2022/08/03 06:43:00;;;;;;;14.20;3.10;;;;;;;;;;5099968;28;20093;-75
2022/08/03 06:45:27;;;;;;;12.82;3.42;;;;;;;;;;5088732;28;20040;-74
2022/08/03 06:48:20;;;;;;;12.20;2.58;;;;;;;;;;5108223;28;20051;-72
2022/08/03 06:50:46;;;;;;;12.68;2.85;;;;;;;;;;5097883;28;20554;-73
2022/08/03 06:53:12;;;;;;;14.68;2.75;;;;;;;;;;5104628;28;20048;-73
2022/08/03 06:55:38;;;;;;;11.98;2.85;;;;;;;;;;5109874;28;20044;-75
2022/08/03 06:58:04;;;;;;;12.85;3.20;;;;;;;;;;5113140;28;20456;-73
2022/08/03 07:00:30;;;;;;;11.80;3.08;;;;;;;;;;5104625;28;20379;-75
2022/08/03 07:02:56;;;;;;;14.20;2.60;;;;;;;;;;5100565;28;20058;-72
2022/08/03 07:05:22;;;;;;;11.48;2.90;;;;;;;;;;5099793;28;20460;-75
2022/08/03 07:07:48;;;;;;;10.48;2.88;;;;;;;;;;5100268;28;20123;-72
2022/08/03 07:10:14;;;;;;;14.40;2.90;;;;;;;;;;5112288;28;20477;-75
2022/08/03 07:12:40;;;;;;;13.02;3.00;;;;;;;;;;5111758;28;20040;-74
2022/08/03 07:15:07;;;;;;;11.68;3.17;;;;;;;;;;5104485;28;20470;-73
2022/08/03 07:17:34;;;;;;;13.45;3.47;;;;;;;;;;5093422;28;20047;-72
2022/08/03 07:20:00;;;;;;;15.73;3.30;;;;;;;;;;5109675;28;20044;-73
2022/08/03 07:22:27;;;;;;;13.48;2.85;;;;;;;;;;5111672;28;20044;-73
2022/08/03 07:24:53;;;;;;;14.52;2.72;;;;;;;;;;5107162;28;20170;-72
2022/08/03 07:27:20;;;;;;;11.95;3.03;;;;;;;;;;5092848;28;20619;-73
2022/08/03 07:29:46;;;;;;;11.90;3.45;;;;;;;;;;5110364;28;20099;-72
2022/08/03 07:32:12;;;;;;;11.25;2.63;;;;;;;;;;5103056;28;20050;-72
2022/08/03 07:34:38;;;;;;;15.60;3.20;;;;;;;;;;5084843;28;20059;-72
2022/08/03 07:37:04;;;;;;;11.25;2.70;;;;;;;;;;5102981;28;20052;-72
2022/08/03 07:39:30;;;;;;;15.88;3.08;;;;;;;;;;5098789;28;20387;-72
2022/08/03 07:41:56;;;;;;;13.57;2.60;;;;;;;;;;5101579;28;20036;-72
2022/08/03 07:44:22;;;;;;;15.20;3.20;;;;;;;;;;5111567;28;20047;-73
2022/08/03 07:46:49;;;;;;;15.13;2.95;;;;;;;;;;5112323;28;20092;-73
2022/08/03 07:49:15;;;;;;;13.13;2.45;;;;;;;;;;5103838;28;20059;-73
2022/08/03 07:51:41;;;;;;;14.10;3.13;;;;;;;;;;5096039;28;20404;-72
2022/08/03 07:54:09;;;;;;;15.38;2.97;;;;;;;;;;5098644;28;20052;-73
2022/08/03 07:56:35;;;;;;;15.57;3.25;;;;;;;;;;5095908;28;20098;-72
2022/08/03 07:59:01;;;;;;;15.35;2.78;;;;;;;;;;5092802;28;20044;-73
2022/08/03 08:01:28;;;;;;;13.50;2.92;;;;;;;;;;5091938;28;20066;-72
2022/08/03 08:03:54;;;;;;;13.05;2.85;;;;;;;;;;5099957;28;20052;-72
2022/08/03 08:06:20;;;;;;;13.23;2.85;;;;;;;;;;5110798;28;20043;-73
2022/08/03 08:08:46;;;;;;;15.00;3.17;;;;;;;;;;5084209;28;20051;-72
2022/08/03 08:11:13;;;;;;;13.82;2.95;;;;;;;;;;5093910;28;20056;-73
2022/08/03 08:13:39;;;;;;;16.48;3.10;;;;;;;;;;5095585;28;20040;-72
2022/08/03 08:16:05;;;;;;;13.95;3.40;;;;;;;;;;5097015;28;20048;-72
2022/08/03 08:18:31;;;;;;;13.57;3.08;;;;;;;;;;5115672;28;20119;-73
2022/08/03 08:20:58;;;;;;;14.20;3.33;;;;;;;;;;5110346;28;20048;-72
2022/08/03 08:23:25;;;;;;;16.20;3.20;;;;;;;;;;5109510;28;20062;-79
2022/08/03 08:25:51;;;;;;;16.45;3.30;;;;;;;;;;5082261;28;20048;-72
2022/08/03 08:28:18;;;;;;;16.67;3.22;;;;;;;;;;5100796;28;20051;-75
2022/08/03 08:30:44;;;;;;;16.35;3.20;;;;;;;;;;5112967;28;20040;-75
2022/08/03 08:33:10;;;;;;;17.35;3.58;;;;;;;;;;5104739;28;20401;-74
2022/08/03 08:35:36;;;;;;;17.67;3.33;;;;;;;;;;5100909;28;20073;-77
2022/08/03 08:38:02;;;;;;;16.85;3.47;;;;;;;;;;5098782;28;20473;-77
2022/08/03 08:40:29;;;;;;;21.60;3.83;;;;;;;;;;5105945;28;20378;-76
2022/08/03 08:42:55;;;;;;;20.25;3.50;;;;;;;;;;5120992;28;20044;-77
2022/08/03 08:45:21;;;;;;;18.25;3.92;;;;;;;;;;5110834;28;20040;-74
2022/08/03 08:47:49;;;;;;;19.38;3.78;;;;;;;;;;5101605;28;20075;-73
2022/08/03 08:50:20;;;;;;;16.92;3.60;;;;;;;;;;5115815;28;20048;-74
2022/08/03 08:52:47;;;;;;;48.85;5.15;;;;;;;;;;5107833;28;20043;-74
2022/08/03 08:55:16;;;;;;;20.40;3.70;;;;;;;;;;5116464;28;20051;-75
2022/08/03 08:57:48;;;;;;;19.17;3.58;;;;;;;;;;5101015;28;20051;-74
2022/08/03 09:00:14;;;;;;;19.90;3.50;;;;;;;;;;5101613;28;20082;-74
2022/08/03 09:02:41;;;;;;;19.42;3.92;;;;;;;;;;5097869;28;20060;-75
2022/08/03 09:05:14;;;;;;;20.92;3.80;;;;;;;;;;5098367;28;20073;-74
2022/08/03 09:07:41;;;;;;;18.13;3.60;;;;;;;;;;5107211;28;20035;-74
2022/08/03 09:10:07;;;;;;;19.35;3.58;;;;;;;;;;5082533;28;20039;-75
2022/08/03 09:12:44;;;;;;;17.73;3.40;;;;;;;;;;5087847;28;20032;-74
2022/08/03 09:15:20;;;;;;;19.17;3.67;;;;;;;;;;5102038;28;20123;-75
2022/08/03 09:17:46;;;;;;;16.63;3.65;;;;;;;;;;5078920;28;20532;-75
2022/08/03 09:20:12;;;;;;;15.23;3.55;;;;;;;;;;5097012;28;20040;-74
2022/08/03 09:22:57;;;;;;;12.50;2.90;;;;;;;;;;5098713;28;20135;-74
2022/08/03 09:25:28;;;;;;;12.55;3.60;;;;;;;;;;5117700;28;20130;-75
2022/08/03 09:27:54;;;;;;;15.82;3.35;;;;;;;;;;5116828;28;20051;-74
2022/08/03 09:30:20;;;;;;;22.25;3.58;;;;;;;;;;5117784;28;20059;-74
2022/08/03 09:32:46;;;;;;;16.33;3.20;;;;;;;;;;5117766;28;20039;-74
2022/08/03 09:35:13;;;;;;;16.90;3.20;;;;;;;;;;5117451;28;20048;-75
2022/08/03 09:37:40;;;;;;;14.90;3.17;;;;;;;;;;5093133;28;20044;-73
2022/08/03 09:40:06;;;;;;;15.05;3.40;;;;;;;;;;5097001;28;20044;-75
2022/08/03 09:42:37;;;;;;;15.23;3.33;;;;;;;;;;5096876;28;20048;-74
2022/08/03 09:45:04;;;;;;;13.57;2.83;;;;;;;;;;5079527;28;20470;-74
2022/08/03 09:47:31;;;;;;;14.68;3.63;;;;;;;;;;5078956;28;20048;-73
2022/08/03 09:50:02;;;;;;;14.45;3.05;;;;;;;;;;5096804;28;20087;-76
2022/08/03 09:52:35;;;;;;;17.02;3.75;;;;;;;;;;5096357;28;20518;-73
2022/08/03 09:55:02;;;;;;;16.73;3.60;;;;;;;;;;5096337;28;20048;-76
2022/08/03 09:57:31;;;;;;;15.60;3.33;;;;;;;;;;5097024;28;20051;-74
2022/08/03 10:00:11;;;;;;;16.17;3.35;;;;;;;;;;5097239;28;20044;-74
2022/08/03 10:02:38;;;;;;;13.93;3.25;;;;;;;;;;5097141;28;20063;-75
2022/08/03 10:05:05;;;;;;;17.77;3.97;;;;;;;;;;5095652;28;20485;-75
2022/08/03 10:07:41;;;;;;;16.25;3.20;;;;;;;;;;5078427;28;20043;-74
2022/08/03 10:10:09;;;;;;;14.73;3.10;;;;;;;;;;5096498;28;20044;-75
2022/08/03 10:12:36;;;;;;;16.42;3.33;;;;;;;;;;5096907;28;20058;-75
2022/08/03 10:15:02;;;;;;;14.30;3.35;;;;;;;;;;5110315;28;20051;-74
2022/08/03 10:17:28;;;;;;;22.88;3.95;;;;;;;;;;5082222;28;20128;-75
2022/08/03 10:19:54;;;;;;;18.92;3.70;;;;;;;;;;5099847;28;20498;-75
2022/08/03 10:22:26;;;;;;;20.13;3.30;;;;;;;;;;5096828;28;20052;-75
2022/08/03 10:24:53;;;;;;;19.10;3.78;;;;;;;;;;5096735;28;20619;-74
2022/08/03 10:27:21;;;;;;;17.27;3.03;;;;;;;;;;5096207;28;20482;-75
2022/08/03 10:29:51;;;;;;;21.63;3.58;;;;;;;;;;5096361;28;20079;-75
2022/08/03 10:32:31;;;;;;;20.00;3.42;;;;;;;;;;5077972;28;20048;-74
2022/08/03 10:35:10;;;;;;;15.90;3.25;;;;;;;;;;5095311;28;20397;-74
2022/08/03 10:37:38;;;;;;;22.85;3.78;;;;;;;;;;5096714;28;20052;-75
2022/08/03 10:40:06;;;;;;;19.25;3.42;;;;;;;;;;5078925;28;20047;-75
2022/08/03 10:42:33;;;;;;;19.38;3.60;;;;;;;;;;5096760;28;20040;-74
2022/08/03 10:45:04;;;;;;;22.30;3.42;;;;;;;;;;5114416;28;20049;-74
2022/08/03 10:47:31;;;;;;;17.25;3.30;;;;;;;;;;5114083;28;20101;-75
2022/08/03 10:49:57;;;;;;;22.73;4.55;;;;;;;;;;5095566;28;20048;-74
2022/08/03 10:52:24;;;;;;;16.13;3.42;;;;;;;;;;5095895;28;20055;-75
2022/08/03 10:57:44;;;;;;;23.50;4.00;;;;;;;;;;5096183;28;20134;-74
2022/08/03 11:00:11;;;;;;;29.65;3.92;;;;;;;;;;5096838;28;20201;-75
2022/08/03 11:02:56;;;;;;;19.75;3.40;;;;;;;;;;5095586;28;20044;-75
2022/08/03 11:05:27;;;;;;;19.92;3.42;;;;;;;;;;5096385;28;20079;-75
2022/08/03 11:08:13;;;;;;;15.15;3.45;;;;;;;;;;5078689;28;20044;-74
2022/08/03 11:10:39;;;;;;;22.27;4.45;;;;;;;;;;5097208;28;20052;-75
2022/08/03 11:13:06;;;;;;;16.58;3.50;;;;;;;;;;5096559;28;20036;-75
2022/08/03 11:15:34;;;;;;;18.73;3.65;;;;;;;;;;5098634;28;20450;-75
2022/08/03 11:18:10;;;;;;;17.35;3.20;;;;;;;;;;5105819;28;20056;-75
2022/08/03 11:20:55;;;;;;;16.40;3.08;;;;;;;;;;5096430;28;20044;-74
2022/08/03 11:23:40;;;;;;;16.48;3.90;;;;;;;;;;5096227;28;20044;-74
2022/08/03 11:26:09;;;;;;;17.10;3.20;;;;;;;;;;5096299;28;20076;-75
2022/08/03 11:28:37;;;;;;;15.05;2.90;;;;;;;;;;5097424;28;20048;-75
2022/08/03 11:31:21;;;;;;;13.48;3.10;;;;;;;;;;5106610;28;20079;-75
2022/08/03 11:34:04;;;;;;;19.80;3.70;;;;;;;;;;5116701;28;20054;-75
2022/08/03 11:36:30;;;;;;;20.90;3.45;;;;;;;;;;5115942;28;20081;-75
2022/08/03 11:39:12;;;;;;;24.50;4.03;;;;;;;;;;5096635;28;20044;-74
2022/08/03 11:41:38;;;;;;;24.60;3.53;;;;;;;;;;5115805;28;20036;-75
2022/08/03 11:44:04;;;;;;;19.00;3.72;;;;;;;;;;5085317;28;20051;-75
2022/08/03 11:46:36;;;;;;;19.90;3.28;;;;;;;;;;5113414;28;20044;-75
2022/08/03 11:49:06;;;;;;;17.88;3.03;;;;;;;;;;5121384;28;20085;-75
2022/08/03 11:51:32;;;;;;;15.15;3.42;;;;;;;;;;5120780;28;20400;-74
2022/08/03 11:54:03;;;;;;;19.33;3.30;;;;;;;;;;5121304;28;20062;-75
2022/08/03 11:56:42;;;;;;;24.13;4.18;;;;;;;;;;5120894;28;20047;-75
2022/08/03 11:59:08;;;;;;;17.50;2.97;;;;;;;;;;5121060;28;20040;-74
2022/08/03 12:01:35;;;;;;;15.50;2.95;;;;;;;;;;5082306;28;20071;-75
2022/08/03 12:04:04;;;;;;;14.88;2.72;;;;;;;;;;5100331;28;20533;-74
2022/08/03 12:06:52;;;;;;;14.95;3.70;;;;;;;;;;5098996;28;20055;-75
2022/08/03 12:09:16;;;;;;;15.70;3.20;;;;;;;;;;5083100;28;20101;-75
2022/08/03 12:11:42;;;;;;;15.52;3.03;;;;;;;;;;5090529;28;20052;-74
2022/08/03 12:14:15;;;;;;;15.77;2.88;;;;;;;;;;5112696;28;20032;-74
2022/08/03 12:16:46;;;;;;;15.75;3.00;;;;;;;;;;5103193;28;20052;-75
2022/08/03 12:19:12;;;;;;;19.60;3.40;;;;;;;;;;5092501;28;20044;-75
2022/08/03 12:21:48;;;;;;;12.10;2.80;;;;;;;;;;5101129;28;20047;-74
2022/08/03 12:24:14;;;;;;;16.45;3.00;;;;;;;;;;5110085;28;20119;-74
2022/08/03 12:26:48;;;;;;;17.67;3.25;;;;;;;;;;5101465;28;20068;-74
2022/08/03 12:29:21;;;;;;;14.27;3.08;;;;;;;;;;5101851;28;20048;-75
2022/08/03 12:31:47;;;;;;;14.30;2.85;;;;;;;;;;5102269;28;20048;-74
2022/08/03 12:34:13;;;;;;;17.02;3.03;;;;;;;;;;5101234;28;20063;-74
2022/08/03 12:36:49;;;;;;;14.70;2.67;;;;;;;;;;5100150;28;20101;-74
2022/08/03 12:39:16;;;;;;;16.90;2.53;;;;;;;;;;5100657;28;20035;-75
2022/08/03 12:41:42;;;;;;;17.17;3.13;;;;;;;;;;5083566;28;20052;-75
2022/08/03 12:44:09;;;;;;;16.13;3.10;;;;;;;;;;5121374;28;20429;-74
2022/08/03 12:46:39;;;;;;;14.73;2.90;;;;;;;;;;5103291;28;20523;-75
2022/08/03 12:49:08;;;;;;;18.05;2.67;;;;;;;;;;5116847;28;20074;-74
2022/08/03 12:51:43;;;;;;;17.95;2.78;;;;;;;;;;5103295;28;20524;-75
2022/08/03 12:54:16;;;;;;;15.02;3.17;;;;;;;;;;5110583;28;20062;-75
2022/08/03 12:57:01;;;;;;;15.25;2.67;;;;;;;;;;5109762;28;20039;-74
2022/08/03 12:59:29;;;;;;;15.38;2.95;;;;;;;;;;5105142;28;20051;-75
2022/08/03 13:01:55;;;;;;;16.77;2.80;;;;;;;;;;5120949;28;20050;-75
2022/08/03 13:04:25;;;;;;;14.02;2.72;;;;;;;;;;5114816;28;20046;-75
2022/08/03 13:06:58;;;;;;;15.93;2.40;;;;;;;;;;5103565;28;20036;-75
2022/08/03 13:09:27;;;;;;;14.38;3.03;;;;;;;;;;5082407;28;20044;-75
2022/08/03 13:12:13;;;;;;;14.98;2.42;;;;;;;;;;5116806;28;20077;-74
2022/08/03 13:14:40;;;;;;;13.70;2.33;;;;;;;;;;5086198;28;20103;-74
2022/08/03 13:17:06;;;;;;;16.25;2.63;;;;;;;;;;5088099;28;20043;-74
2022/08/03 13:19:33;;;;;;;23.52;3.25;;;;;;;;;;5117615;28;20099;-75
2022/08/03 13:22:00;;;;;;;18.00;3.40;;;;;;;;;;5110976;28;20469;-74
2022/08/03 13:24:26;;;;;;;17.40;2.97;;;;;;;;;;5100010;28;20059;-75
2022/08/03 13:26:52;;;;;;;18.23;3.10;;;;;;;;;;5109088;28;20050;-73
2022/08/03 13:29:18;;;;;;;16.10;3.03;;;;;;;;;;5109042;28;20055;-74
2022/08/03 13:31:44;;;;;;;14.77;3.00;;;;;;;;;;5098267;28;20052;-75
2022/08/03 13:34:10;;;;;;;19.42;3.00;;;;;;;;;;5113829;28;20408;-74
2022/08/03 13:36:37;;;;;;;15.55;3.15;;;;;;;;;;5110935;28;20084;-74
2022/08/03 13:39:03;;;;;;;15.18;3.17;;;;;;;;;;5099155;28;20401;-74
2022/08/03 13:41:29;;;;;;;12.32;2.50;;;;;;;;;;5084224;28;20503;-74
2022/08/03 13:43:55;;;;;;;16.08;2.83;;;;;;;;;;5106276;28;20157;-74
2022/08/03 13:46:21;;;;;;;15.73;2.95;;;;;;;;;;5109874;28;20069;-74
2022/08/03 13:48:47;;;;;;;15.88;3.00;;;;;;;;;;5085941;28;20261;-74
2022/08/03 13:51:13;;;;;;;13.68;2.80;;;;;;;;;;5115729;28;20048;-74
2022/08/03 13:53:39;;;;;;;15.55;2.92;;;;;;;;;;5118789;28;20063;-74
2022/08/03 13:56:05;;;;;;;17.52;2.85;;;;;;;;;;5113776;28;20117;-74
2022/08/03 13:58:31;;;;;;;19.33;3.50;;;;;;;;;;5086267;28;20040;-74
2022/08/03 14:00:57;;;;;;;17.92;2.88;;;;;;;;;;5084484;28;20040;-74
2022/08/03 14:03:24;;;;;;;17.25;3.28;;;;;;;;;;5104324;28;20046;-73
2022/08/03 14:05:50;;;;;;;13.88;2.60;;;;;;;;;;5083192;28;20099;-74
2022/08/03 14:08:17;;;;;;;14.52;2.92;;;;;;;;;;5088831;28;20044;-74
2022/08/03 14:10:43;;;;;;;15.63;3.22;;;;;;;;;;5098765;28;20119;-75
2022/08/03 14:13:11;;;;;;;14.00;3.50;;;;;;;;;;5098842;28;20097;-73
2022/08/03 14:15:37;;;;;;;15.07;3.03;;;;;;;;;;5081889;28;20054;-74
2022/08/03 14:18:03;;;;;;;16.13;3.53;;;;;;;;;;5100549;28;20133;-74
2022/08/03 14:20:29;;;;;;;17.83;3.20;;;;;;;;;;5101096;28;20069;-74
2022/08/03 14:22:55;;;;;;;15.13;2.97;;;;;;;;;;5088114;28;20489;-74
2022/08/03 14:25:21;;;;;;;18.25;3.40;;;;;;;;;;5100973;28;20051;-74
2022/08/03 14:27:47;;;;;;;16.25;3.08;;;;;;;;;;5104398;28;20525;-75
2022/08/03 14:30:14;;;;;;;16.08;3.47;;;;;;;;;;5086259;28;20031;-74
2022/08/03 14:32:43;;;;;;;18.42;3.00;;;;;;;;;;5116167;28;20621;-74
2022/08/03 14:35:09;;;;;;;16.08;3.20;;;;;;;;;;5107647;28;20039;-75
2022/08/03 14:37:35;;;;;;;23.50;3.83;;;;;;;;;;5100871;28;20040;-74
2022/08/03 14:40:01;;;;;;;12.35;2.65;;;;;;;;;;5101411;28;20074;-73
2022/08/03 14:42:27;;;;;;;13.95;2.92;;;;;;;;;;5100059;28;20048;-74
2022/08/03 14:44:53;;;;;;;14.63;3.17;;;;;;;;;;5112234;28;20048;-73